createdAt,value
2023-03-06T00:00:03.962Z,979.5495
2023-03-06T00:01:01.733Z,979.6122
2023-03-06T00:02:02.200Z,979.5279
2023-03-06T00:03:01.735Z,979.5841
2023-03-06T00:04:02.294Z,979.6683
2023-03-06T00:05:01.643Z,979.5905
2023-03-06T00:06:03.896Z,979.4156
2023-03-06T00:07:01.635Z,979.4998
2023-03-06T00:08:02.140Z,979.4998
2023-03-06T00:09:01.608Z,979.4998
2023-03-06T00:10:03.715Z,979.6122
2023-03-06T00:11:01.485Z,979.4653
2023-03-06T00:12:01.958Z,979.3465
2023-03-06T00:13:01.509Z,979.5495
2023-03-06T00:14:01.995Z,979.4869
2023-03-06T00:15:01.403Z,979.4588
2023-03-06T00:16:01.949Z,979.4588
2023-03-06T00:17:01.438Z,979.5776
2023-03-06T00:18:03.566Z,979.4717
2023-03-06T00:19:03.006Z,979.4437
2023-03-06T00:20:01.800Z,979.4308
2023-03-06T00:21:03.962Z,979.353
2023-03-06T00:22:03.412Z,979.4998
2023-03-06T00:23:03.877Z,979.3875
2023-03-06T00:24:01.725Z,979.4091
2023-03-06T00:25:03.884Z,979.5279
2023-03-06T00:26:03.324Z,979.353
2023-03-06T00:27:02.134Z,979.3875
2023-03-06T00:28:01.634Z,979.3594
2023-03-06T00:29:02.144Z,979.6034
2023-03-06T00:30:01.582Z,979.463
2023-03-06T00:31:03.721Z,979.3939
2023-03-06T00:32:01.492Z,979.3594
2023-03-06T00:33:01.957Z,979.5279
2023-03-06T00:34:01.495Z,979.3594
2023-03-06T00:35:02.019Z,979.4308
2023-03-06T00:36:01.398Z,979.4308
2023-03-06T00:37:01.868Z,979.3746
2023-03-06T00:38:03.078Z,979.5712
2023-03-06T00:39:03.555Z,979.4308
2023-03-06T00:40:01.347Z,979.2903
2023-03-06T00:41:01.801Z,979.3465
2023-03-06T00:43:03.482Z,979.3184
2023-03-06T00:44:02.270Z,979.2342
2023-03-06T00:45:01.736Z,979.3184
2023-03-06T00:46:02.264Z,979.3465
2023-03-06T00:47:01.702Z,979.2903
2023-03-06T00:48:02.197Z,979.3184
2023-03-06T00:49:03.315Z,979.2903
2023-03-06T00:50:02.113Z,979.4588
2023-03-06T00:51:01.661Z,979.1733
2023-03-06T00:52:02.109Z,979.4308
2023-03-06T00:53:01.558Z,979.2903
2023-03-06T00:54:02.038Z,979.2856
2023-03-06T00:55:01.571Z,979.2441
2023-03-06T00:56:02.061Z,979.1803
2023-03-06T00:57:01.508Z,979.4308
2023-03-06T00:58:01.945Z,979.2623
2023-03-06T00:59:01.479Z,979.2342
2023-03-06T01:00:01.959Z,979.2623
2023-03-06T01:01:01.417Z,979.2061
2023-03-06T01:02:01.944Z,979.2061
2023-03-06T01:03:01.402Z,979.2903
2023-03-06T01:04:01.865Z,979.2342
2023-03-06T01:05:02.998Z,979.1219
2023-03-06T01:06:01.797Z,979.2903
2023-03-06T01:07:02.293Z,979.1219
2023-03-06T01:08:01.789Z,979.1219
2023-03-06T01:09:02.271Z,979.2061
2023-03-06T01:10:01.717Z,979.1499
2023-03-06T01:11:02.184Z,979.0095
2023-03-06T01:12:01.767Z,978.9814
2023-03-06T01:13:03.875Z,979.0095
2023-03-06T01:14:03.313Z,979.1219
2023-03-06T01:15:03.784Z,979.1219
2023-03-06T01:16:02.643Z,979.0095
2023-03-06T01:18:03.597Z,979.0095
2023-03-06T01:19:02.279Z,978.9317
2023-03-06T01:20:01.723Z,979.0657
2023-03-06T01:21:02.210Z,979.1499
2023-03-06T01:22:01.717Z,978.9534
2023-03-06T01:23:02.201Z,978.9534
2023-03-06T01:24:03.322Z,979.0657
2023-03-06T01:25:02.120Z,978.9253
2023-03-06T01:26:01.639Z,978.8972
2023-03-06T01:27:02.120Z,978.9534
2023-03-06T01:28:01.578Z,979.0095
2023-03-06T01:29:02.074Z,978.8972
2023-03-06T01:30:01.555Z,978.8972
2023-03-06T01:31:02.050Z,978.7849
2023-03-06T01:32:01.626Z,978.7006
2023-03-06T01:33:01.982Z,978.7632
2023-03-06T01:34:01.487Z,978.7071
2023-03-06T01:35:01.970Z,978.7697
2023-03-06T01:36:01.398Z,978.9662
2023-03-06T01:37:03.555Z,978.7632
2023-03-06T01:38:01.393Z,978.9662
2023-03-06T01:39:01.886Z,978.9662
2023-03-06T01:40:01.319Z,978.7849
2023-03-06T01:41:01.818Z,978.7849
2023-03-06T01:43:01.801Z,978.7287
2023-03-06T01:44:02.275Z,978.8972
2023-03-06T01:45:01.722Z,978.7849
2023-03-06T01:46:03.921Z,978.7287
2023-03-06T01:47:01.718Z,978.7006
2023-03-06T01:48:03.874Z,978.7006
2023-03-06T01:49:01.720Z,978.8972
2023-03-06T01:50:03.888Z,978.6725
2023-03-06T01:51:03.323Z,978.7849
2023-03-06T01:52:02.167Z,978.8972
2023-03-06T01:53:01.653Z,978.8972
2023-03-06T01:54:03.796Z,978.7071
2023-03-06T01:55:01.558Z,978.7071
2023-03-06T01:56:02.037Z,978.6164
2023-03-06T01:57:01.474Z,978.7632
2023-03-06T01:58:02.030Z,978.7287
2023-03-06T01:59:01.470Z,978.6725
2023-03-06T02:00:01.965Z,978.6725
2023-03-06T02:01:01.507Z,978.8972
2023-03-06T02:02:02.054Z,978.7006
2023-03-06T02:03:01.424Z,978.6725
2023-03-06T02:04:01.967Z,978.6725
2023-03-06T02:05:01.396Z,978.6164
2023-03-06T02:06:01.892Z,978.5907
2023-03-06T02:07:03.019Z,978.5907
2023-03-06T02:08:01.801Z,978.7334
2023-03-06T02:10:01.888Z,978.6141
2023-03-06T02:11:02.295Z,978.6486
2023-03-06T02:12:01.823Z,978.514
2023-03-06T02:13:02.282Z,978.6141
2023-03-06T02:14:03.393Z,978.4147
2023-03-06T02:15:02.206Z,978.5323
2023-03-06T02:16:02.724Z,978.5323
2023-03-06T02:17:01.528Z,978.6533
2023-03-06T02:18:02.003Z,978.4522
2023-03-06T02:19:01.408Z,978.5148
2023-03-06T02:20:01.949Z,978.4213
2023-03-06T02:21:01.400Z,978.4955
2023-03-06T02:22:03.563Z,978.4973
2023-03-06T02:23:03.044Z,978.3477
2023-03-06T02:24:01.810Z,978.5646
2023-03-06T02:25:03.969Z,978.4612
2023-03-06T02:26:03.411Z,978.5173
2023-03-06T02:27:03.883Z,978.4495
2023-03-06T02:28:01.744Z,978.3754
2023-03-06T02:29:02.228Z,978.2872
2023-03-06T02:30:01.663Z,978.1213
2023-03-06T02:31:03.910Z,978.2335
2023-03-06T02:32:03.290Z,978.3457
2023-03-06T02:33:02.134Z,978.5536
2023-03-06T02:34:01.595Z,978.1792
2023-03-06T02:35:03.736Z,978.3843
2023-03-06T02:36:01.534Z,978.3154
2023-03-06T02:37:01.996Z,978.2466
2023-03-06T02:38:03.181Z,978.3154
2023-03-06T02:39:01.997Z,978.2466
2023-03-06T02:40:01.412Z,978.2466
2023-03-06T02:41:01.941Z,978.4609
2023-03-06T02:42:01.416Z,978.2121
2023-03-06T02:43:01.885Z,978.2139
2023-03-06T02:45:01.854Z,978.3197
2023-03-06T02:46:02.387Z,978.1252
2023-03-06T02:47:03.404Z,978.1124
2023-03-06T02:48:02.211Z,978.0021
2023-03-06T02:49:01.724Z,978.1919
2023-03-06T02:50:02.213Z,978.3022
2023-03-06T02:51:01.723Z,978.0582
2023-03-06T02:52:02.197Z,977.9677
2023-03-06T02:53:01.664Z,978.1575
2023-03-06T02:54:03.791Z,978.1453
2023-03-06T02:55:03.341Z,978.0548
2023-03-06T02:56:02.113Z,978.0134
2023-03-06T02:57:01.560Z,978.0567
2023-03-06T02:58:02.068Z,978.1407
2023-03-06T02:59:01.556Z,978.0567
2023-03-06T03:00:03.658Z,978.0006
2023-03-06T03:01:01.478Z,978.0847
2023-03-06T03:02:01.960Z,977.94
2023-03-06T03:03:01.501Z,978.0801
2023-03-06T03:04:03.628Z,978.0521
2023-03-06T03:05:01.382Z,978.1577
2023-03-06T03:06:03.556Z,977.9897
2023-03-06T03:07:01.312Z,978.0609
2023-03-06T03:08:01.826Z,977.9017
2023-03-06T03:10:01.812Z,978.0301
2023-03-06T03:11:02.271Z,977.9741
2023-03-06T03:12:01.708Z,977.9875
2023-03-06T03:13:02.207Z,977.9659
2023-03-06T03:14:01.704Z,978.0301
2023-03-06T03:15:03.133Z,977.9741
2023-03-06T03:16:02.051Z,977.9403
2023-03-06T03:17:01.323Z,977.8067
2023-03-06T03:18:01.908Z,978.0308
2023-03-06T03:19:01.303Z,977.9619
2023-03-06T03:20:01.799Z,977.8347
2023-03-06T03:21:02.282Z,977.983
2023-03-06T03:22:01.821Z,977.8862
2023-03-06T03:23:03.975Z,977.699
2023-03-06T03:24:01.736Z,977.895
2023-03-06T03:25:02.196Z,977.9918
2023-03-06T03:26:01.634Z,977.727
2023-03-06T03:27:03.795Z,977.9078
2023-03-06T03:28:01.628Z,977.727
2023-03-06T03:29:02.144Z,977.8862
2023-03-06T03:30:03.236Z,977.6965
2023-03-06T03:31:02.203Z,977.7099
2023-03-06T03:32:01.607Z,977.7659
2023-03-06T03:33:02.033Z,977.8085
2023-03-06T03:34:01.575Z,977.7227
2023-03-06T03:35:02.032Z,977.7379
2023-03-06T03:36:01.511Z,977.7939
2023-03-06T03:37:01.957Z,977.8709
2023-03-06T03:38:01.472Z,977.8798
2023-03-06T03:39:01.979Z,977.8588
2023-03-06T03:40:01.395Z,977.8518
2023-03-06T03:41:01.871Z,977.6907
2023-03-06T03:42:01.396Z,977.8582
2023-03-06T03:43:03.551Z,977.8862
2023-03-06T03:44:01.353Z,977.7467
2023-03-06T03:45:01.792Z,977.8862
2023-03-06T03:46:02.324Z,977.8085
2023-03-06T03:47:01.796Z,977.8028
2023-03-06T03:48:02.276Z,977.9638
2023-03-06T03:49:03.421Z,977.783
2023-03-06T03:50:03.883Z,977.7486
2023-03-06T03:51:01.715Z,977.839
2023-03-06T03:52:02.209Z,977.8688
2023-03-06T03:53:03.319Z,977.7727
2023-03-06T03:54:02.118Z,977.6127
2023-03-06T03:55:01.656Z,977.7288
2023-03-06T03:56:02.129Z,977.8688
2023-03-06T03:57:03.224Z,977.9248
2023-03-06T03:58:02.037Z,977.6127
2023-03-06T03:59:01.564Z,977.7657
2023-03-06T04:00:02.056Z,977.7937
2023-03-06T04:01:01.478Z,977.6817
2023-03-06T04:02:02.046Z,977.7727
2023-03-06T04:03:01.478Z,977.7504
2023-03-06T04:04:01.952Z,977.6944
2023-03-06T04:05:01.452Z,977.6728
2023-03-06T04:06:01.954Z,977.6102
2023-03-06T04:07:01.388Z,977.6926
2023-03-06T04:08:01.879Z,977.671
2023-03-06T04:09:01.406Z,977.6646
2023-03-06T04:10:01.898Z,977.4982
2023-03-06T04:11:02.996Z,977.5046
2023-03-06T04:12:03.466Z,977.5886
2023-03-06T04:13:02.277Z,977.567
2023-03-06T04:14:03.420Z,977.4333
2023-03-06T04:15:04.816Z,977.6077
2023-03-06T04:16:01.606Z,977.455
2023-03-06T04:17:02.062Z,977.4588
2023-03-06T04:18:01.500Z,977.5365
2023-03-06T04:19:01.949Z,977.4741
2023-03-06T04:20:01.473Z,977.4588
2023-03-06T04:21:03.628Z,977.4308
2023-03-06T04:22:01.390Z,977.4588
2023-03-06T04:23:03.587Z,977.4658
2023-03-06T04:24:03.004Z,977.2908
2023-03-06T04:25:01.792Z,977.3188
2023-03-06T04:26:03.969Z,977.3939
2023-03-06T04:27:01.799Z,977.3939
2023-03-06T04:28:02.265Z,977.3939
2023-03-06T04:29:01.762Z,977.3163
2023-03-06T04:30:02.212Z,977.3939
2023-03-06T04:31:01.721Z,977.3946
2023-03-06T04:32:02.284Z,977.2603
2023-03-06T04:33:03.328Z,977.4353
2023-03-06T04:34:02.234Z,977.3513
2023-03-06T04:35:01.633Z,977.3297
2023-03-06T04:36:02.119Z,977.3431
2023-03-06T04:37:01.634Z,977.1272
2023-03-06T04:38:02.037Z,977.2113
2023-03-06T04:39:01.618Z,977.1336
2023-03-06T04:40:03.723Z,977.1317
2023-03-06T04:41:01.474Z,977.3214
2023-03-06T04:42:01.960Z,977.2654
2023-03-06T04:43:03.178Z,977.2374
2023-03-06T04:44:01.980Z,977.1253
2023-03-06T04:45:01.391Z,977.1597
2023-03-06T04:46:01.930Z,977.1661
2023-03-06T04:47:01.406Z,977.2075
2023-03-06T04:48:01.885Z,977.2635
2023-03-06T04:49:01.335Z,977.2005
2023-03-06T04:50:03.467Z,977.1661
2023-03-06T04:51:02.273Z,977.2005
2023-03-06T04:52:03.389Z,977.1661
2023-03-06T04:53:02.301Z,977.2005
2023-03-06T04:54:01.728Z,977.1661
2023-03-06T04:55:02.230Z,976.9834
2023-03-06T04:56:03.317Z,976.9834
2023-03-06T04:57:02.195Z,977.1075
2023-03-06T04:58:01.640Z,977.112
2023-03-06T04:59:02.124Z,976.9719
2023-03-06T05:00:01.614Z,976.9719
2023-03-06T05:01:03.762Z,976.9719
2023-03-06T05:02:01.675Z,976.9783
2023-03-06T05:03:03.721Z,976.9719
2023-03-06T05:04:01.480Z,976.8165
2023-03-06T05:05:03.646Z,976.7821
2023-03-06T05:06:01.480Z,976.7528
2023-03-06T05:07:01.977Z,976.9604
2023-03-06T05:08:01.405Z,976.9885
2023-03-06T05:09:01.998Z,976.7643
2023-03-06T05:10:01.404Z,976.8547
2023-03-06T05:11:01.874Z,976.7029
2023-03-06T05:12:03.086Z,976.7226
2023-03-06T05:13:02.936Z,976.7967
2023-03-06T05:14:01.651Z,976.747
2023-03-06T05:15:02.114Z,976.8719
2023-03-06T05:16:01.621Z,977.0165
2023-03-06T05:17:03.794Z,976.926
2023-03-06T05:18:01.547Z,976.8419
2023-03-06T05:19:02.063Z,976.9407
2023-03-06T05:20:03.230Z,976.9126
2023-03-06T05:21:03.717Z,976.8158
2023-03-06T05:22:01.482Z,976.9776
2023-03-06T05:23:01.962Z,976.956
2023-03-06T05:24:03.087Z,976.8591
2023-03-06T05:25:01.874Z,976.9209
2023-03-06T05:26:01.392Z,976.9993
2023-03-06T05:27:03.564Z,976.9929
2023-03-06T05:28:01.307Z,976.9649
2023-03-06T05:29:01.791Z,976.8611
2023-03-06T05:30:02.282Z,976.7923
2023-03-06T05:31:03.617Z,977.0165
2023-03-06T05:32:02.450Z,976.9885
2023-03-06T05:33:01.750Z,976.8649
2023-03-06T05:34:02.215Z,976.7361
2023-03-06T05:35:03.332Z,976.8165
2023-03-06T05:36:02.193Z,976.8649
2023-03-06T05:37:01.660Z,976.8382
2023-03-06T05:38:03.802Z,976.8445
2023-03-06T05:39:01.559Z,976.8019
2023-03-06T05:40:02.119Z,976.949
2023-03-06T05:41:01.589Z,976.7144
2023-03-06T05:42:02.035Z,976.8649
2023-03-06T05:43:01.556Z,976.7885
2023-03-06T05:44:03.728Z,976.9006
2023-03-06T05:45:03.158Z,976.7144
2023-03-06T05:46:02.003Z,976.8649
2023-03-06T05:47:01.486Z,976.7808
2023-03-06T05:48:01.974Z,976.8923
2023-03-06T05:49:01.478Z,976.8929
2023-03-06T05:50:01.986Z,976.6781
2023-03-06T05:51:01.428Z,976.7342
2023-03-06T05:52:01.892Z,976.6507
2023-03-06T05:53:03.081Z,976.7528
2023-03-06T05:54:01.876Z,976.6507
2023-03-06T05:55:03.000Z,976.7182
2023-03-06T05:56:01.823Z,976.7182
2023-03-06T05:57:03.950Z,976.5781
2023-03-06T05:58:01.801Z,976.6221
2023-03-06T05:59:02.194Z,976.4819
2023-03-06T06:00:01.711Z,976.5106
2023-03-06T06:01:02.205Z,976.51
2023-03-06T06:02:01.687Z,976.522
2023-03-06T06:03:02.164Z,976.5564
2023-03-06T06:04:01.635Z,976.466
2023-03-06T06:05:03.788Z,976.5564
2023-03-06T06:06:01.656Z,976.6749
2023-03-06T06:07:03.712Z,976.5908
2023-03-06T06:08:01.565Z,976.5067
2023-03-06T06:09:02.044Z,976.6105
2023-03-06T06:10:04.015Z,976.6513
2023-03-06T06:11:02.003Z,976.5716
2023-03-06T06:12:02.452Z,976.4875
2023-03-06T06:13:02.130Z,976.5907
2023-03-06T06:14:03.315Z,976.4639
2023-03-06T06:15:02.111Z,976.4422
2023-03-06T06:16:01.609Z,976.4983
2023-03-06T06:17:02.072Z,976.4976
2023-03-06T06:18:03.235Z,976.567
2023-03-06T06:19:02.044Z,976.5454
2023-03-06T06:20:01.476Z,976.683
2023-03-06T06:21:01.968Z,976.4586
2023-03-06T06:22:03.173Z,976.4567
2023-03-06T06:23:01.961Z,976.3165
2023-03-06T06:24:01.390Z,976.4484
2023-03-06T06:25:03.552Z,976.7383
2023-03-06T06:26:01.392Z,976.5981
2023-03-06T06:27:03.857Z,976.57
2023-03-06T06:28:01.338Z,976.5139
2023-03-06T06:29:03.476Z,976.5981
2023-03-06T06:30:03.950Z,976.57
2023-03-06T06:31:01.825Z,976.4298
2023-03-06T06:32:02.349Z,976.4298
2023-03-06T06:33:01.747Z,976.4859
2023-03-06T06:34:02.202Z,976.6261
2023-03-06T06:35:01.729Z,976.4578
2023-03-06T06:36:02.204Z,976.5139
2023-03-06T06:37:01.644Z,976.6261
2023-03-06T06:38:03.818Z,976.6542
2023-03-06T06:39:01.566Z,976.5981
2023-03-06T06:40:03.831Z,976.542
2023-03-06T06:41:33.457Z,976.6261
2023-03-06T06:42:26.148Z,976.5981
2023-03-06T06:43:01.495Z,976.4922
2023-03-06T06:44:01.963Z,976.6452
2023-03-06T06:45:01.512Z,976.4986
2023-03-06T06:46:24.561Z,976.5828
2023-03-06T06:47:22.320Z,976.5267
2023-03-06T06:48:01.945Z,976.5611
2023-03-06T06:49:01.427Z,976.6172
2023-03-06T06:50:01.901Z,976.4986
2023-03-06T06:51:01.324Z,976.5534
2023-03-06T06:52:01.793Z,976.4412
2023-03-06T06:53:02.274Z,976.4686
2023-03-06T06:54:03.469Z,976.5808
2023-03-06T06:55:02.290Z,976.5572
2023-03-06T06:56:01.712Z,976.4443
2023-03-06T06:57:02.191Z,976.4857
2023-03-06T06:58:03.393Z,976.6043
2023-03-06T06:59:15.748Z,976.4767
2023-03-06T07:00:01.663Z,976.4206
2023-03-06T07:01:02.116Z,976.5871
2023-03-06T07:02:03.311Z,976.5717
2023-03-06T07:03:02.115Z,976.397
2023-03-06T07:04:01.611Z,976.4939
2023-03-06T07:05:05.332Z,976.4014
2023-03-06T07:06:01.548Z,976.5417
2023-03-06T07:07:02.028Z,976.5761
2023-03-06T07:08:01.476Z,976.6795
2023-03-06T07:09:03.633Z,976.349
2023-03-06T07:10:01.484Z,976.2928
2023-03-06T07:11:02.038Z,976.3617
2023-03-06T07:12:03.144Z,976.3553
2023-03-06T07:13:01.972Z,976.4025
2023-03-06T07:14:01.476Z,976.4306
2023-03-06T07:15:03.565Z,976.4643
2023-03-06T07:16:01.436Z,976.5058
2023-03-06T07:17:03.575Z,976.6506
2023-03-06T07:18:03.019Z,976.6506
2023-03-06T07:19:01.795Z,976.6506
2023-03-06T07:21:01.793Z,976.3698
2023-03-06T07:22:02.276Z,976.4541
2023-03-06T07:23:01.731Z,976.3545
2023-03-06T07:24:03.909Z,976.4732
2023-03-06T07:25:01.718Z,976.4016
2023-03-06T07:26:02.192Z,976.3799
2023-03-06T07:27:01.635Z,976.3365
2023-03-06T07:28:02.198Z,976.5254
2023-03-06T07:29:01.638Z,976.3352
2023-03-06T07:30:02.117Z,976.579
2023-03-06T07:31:01.812Z,976.367
2023-03-06T07:32:02.286Z,976.3453
2023-03-06T07:33:01.555Z,976.4774
2023-03-06T07:34:04.785Z,976.358
2023-03-06T07:35:19.032Z,976.4831
2023-03-06T07:36:02.094Z,976.5029
2023-03-06T07:37:01.473Z,976.3969
2023-03-06T07:38:01.953Z,976.4039
2023-03-06T07:39:01.403Z,976.5354
2023-03-06T07:40:01.894Z,976.3233
2023-03-06T07:41:01.401Z,976.3233
2023-03-06T07:42:01.879Z,976.6165
2023-03-06T07:43:13.211Z,976.6963
2023-03-06T07:44:01.890Z,976.64
2023-03-06T07:46:03.508Z,976.3442
2023-03-06T07:47:02.273Z,976.4132
2023-03-06T07:48:05.576Z,976.3697
2023-03-06T07:49:02.270Z,976.5582
2023-03-06T07:50:01.721Z,976.5147
2023-03-06T07:51:02.212Z,976.2961
2023-03-06T07:52:01.750Z,976.6527
2023-03-06T07:53:02.216Z,976.5108
2023-03-06T07:54:01.649Z,976.406
2023-03-06T07:55:02.140Z,976.7358
2023-03-06T07:56:01.578Z,976.3976
2023-03-06T07:57:03.718Z,976.5165
2023-03-06T07:58:01.586Z,976.8293
2023-03-06T07:59:02.062Z,976.1924
2023-03-06T08:00:01.500Z,976.3675
2023-03-06T08:01:01.959Z,976.4455
2023-03-06T08:02:01.491Z,976.3458
2023-03-06T08:03:03.791Z,976.4647
2023-03-06T08:04:03.144Z,976.4205
2023-03-06T08:05:01.893Z,976.4397
2023-03-06T08:06:01.409Z,976.3961
2023-03-06T08:07:01.886Z,976.3322
2023-03-06T08:08:01.330Z,976.5195
2023-03-06T08:09:03.507Z,976.4676
2023-03-06T08:10:02.295Z,976.3966
2023-03-06T08:11:01.735Z,976.4023
2023-03-06T08:12:02.220Z,976.4982
2023-03-06T08:13:01.734Z,976.4675
2023-03-06T08:14:02.211Z,976.493
2023-03-06T08:15:01.684Z,976.5346
2023-03-06T08:16:03.860Z,976.422
2023-03-06T08:17:01.655Z,976.3938
2023-03-06T08:18:03.734Z,976.4341
2023-03-06T08:19:01.567Z,976.3656
2023-03-06T08:20:02.061Z,976.6312
2023-03-06T08:21:01.551Z,976.5511
2023-03-06T08:22:02.057Z,976.3738
2023-03-06T08:23:03.158Z,976.3578
2023-03-06T08:24:01.951Z,976.4711
2023-03-06T08:25:01.517Z,976.4902
2023-03-06T08:26:01.960Z,976.5765
2023-03-06T08:27:01.412Z,976.4427
2023-03-06T08:28:01.894Z,976.5182
2023-03-06T08:29:01.416Z,976.5246
2023-03-06T08:30:03.556Z,976.2992
2023-03-06T08:31:02.999Z,976.513
2023-03-06T08:32:01.848Z,976.3939
2023-03-06T08:34:01.807Z,976.5174
2023-03-06T08:35:02.279Z,976.4893
2023-03-06T08:36:02.469Z,976.3567
2023-03-06T08:37:02.296Z,976.3765
2023-03-06T08:38:01.719Z,976.6141
2023-03-06T08:39:03.886Z,976.4783
2023-03-06T08:40:03.331Z,976.3713
2023-03-06T08:41:02.153Z,976.6512
2023-03-06T08:42:01.650Z,976.3675
2023-03-06T08:43:02.135Z,976.4585
2023-03-06T08:44:01.682Z,976.5058
2023-03-06T08:45:02.136Z,976.3957
2023-03-06T08:46:01.612Z,976.3675
2023-03-06T08:47:02.041Z,976.4437
2023-03-06T08:48:01.574Z,976.4239
2023-03-06T08:49:02.069Z,976.5859
2023-03-06T08:50:01.518Z,976.5238
2023-03-06T08:51:01.984Z,976.3265
2023-03-06T08:52:03.162Z,976.4783
2023-03-06T08:53:01.961Z,976.6494
2023-03-06T08:54:01.437Z,976.3605
2023-03-06T08:55:03.680Z,976.3675
2023-03-06T08:56:03.132Z,976.552
2023-03-06T08:57:01.918Z,976.4021
2023-03-06T08:58:01.321Z,976.5148
2023-03-06T08:59:01.809Z,976.5846
2023-03-06T09:00:03.965Z,976.593
2023-03-06T09:01:01.925Z,976.543
2023-03-06T09:02:02.291Z,976.5474
2023-03-06T09:03:03.394Z,976.473
2023-03-06T09:04:02.207Z,976.6159
2023-03-06T09:05:01.641Z,976.5876
2023-03-06T09:06:03.796Z,976.3475
2023-03-06T09:07:01.649Z,976.5711
2023-03-06T09:08:02.149Z,976.5345
2023-03-06T09:09:01.642Z,976.5576
2023-03-06T09:10:02.111Z,976.475
2023-03-06T09:11:01.561Z,976.7287
2023-03-06T09:12:02.034Z,976.4793
2023-03-06T09:13:01.502Z,976.4101
2023-03-06T09:14:01.969Z,976.7331
2023-03-06T09:15:03.146Z,976.5465
2023-03-06T09:16:01.958Z,976.3918
2023-03-06T09:17:01.404Z,976.5175
2023-03-06T09:18:01.944Z,976.6905
2023-03-06T09:19:01.414Z,976.6243
2023-03-06T09:20:01.865Z,976.6049
2023-03-06T09:21:02.989Z,976.6243
2023-03-06T09:22:01.792Z,976.3264
2023-03-06T09:23:03.959Z,976.6243
2023-03-06T09:24:01.807Z,976.3507
2023-03-06T09:25:02.275Z,976.3898
2023-03-06T09:26:01.735Z,976.4026
2023-03-06T09:27:02.188Z,976.6268
2023-03-06T09:28:10.560Z,976.6243
2023-03-06T09:29:02.240Z,976.4054
2023-03-06T09:30:03.302Z,976.7353
2023-03-06T09:31:02.170Z,976.5029
2023-03-06T09:32:03.344Z,976.6243
2023-03-06T09:33:02.110Z,976.6243
2023-03-06T09:34:01.567Z,976.3291
2023-03-06T09:35:02.044Z,976.6243
2023-03-06T09:36:01.550Z,976.3573
2023-03-06T09:37:03.778Z,976.6333
2023-03-06T09:38:01.492Z,976.4054
2023-03-06T09:39:01.957Z,976.6243
2023-03-06T09:40:01.510Z,976.555
2023-03-06T09:41:01.976Z,976.5274
2023-03-06T09:42:03.405Z,976.6243
2023-03-06T09:43:03.642Z,976.614
2023-03-06T09:44:01.491Z,976.4445
2023-03-06T09:45:01.951Z,976.4072
2023-03-06T09:46:01.478Z,976.4136
2023-03-06T09:47:01.881Z,976.5412
2023-03-06T09:48:03.113Z,976.5309
2023-03-06T09:49:01.887Z,976.3779
2023-03-06T09:50:01.314Z,976.5584
2023-03-06T09:51:01.801Z,976.5056
2023-03-06T09:52:02.276Z,976.4144
2023-03-06T09:53:03.494Z,976.4819
2023-03-06T09:54:02.305Z,976.3322
2023-03-06T09:55:01.743Z,976.4453
2023-03-06T09:56:02.233Z,976.3927
2023-03-06T09:57:01.748Z,976.4428
2023-03-06T09:58:02.238Z,976.4062
2023-03-06T09:59:03.424Z,976.491
2023-03-06T10:00:04.452Z,976.4344
2023-03-06T10:01:03.313Z,976.4801
2023-03-06T10:02:02.193Z,976.4236
2023-03-06T10:03:01.761Z,976.4962
2023-03-06T10:04:02.035Z,976.2613
2023-03-06T10:05:01.644Z,976.4244
2023-03-06T10:06:03.714Z,976.2549
2023-03-06T10:07:04.088Z,976.5958
2023-03-06T10:08:01.820Z,976.5348
2023-03-06T10:09:02.280Z,976.511
2023-03-06T10:10:03.497Z,976.3024
2023-03-06T10:11:02.271Z,976.4719
2023-03-06T10:12:01.721Z,976.4244
2023-03-06T10:13:02.234Z,976.4545
2023-03-06T10:14:01.739Z,976.4936
2023-03-06T10:15:02.218Z,976.2765
2023-03-06T10:16:01.699Z,976.4711
2023-03-06T10:17:02.114Z,976.3271
2023-03-06T10:18:03.350Z,976.3669
2023-03-06T10:19:03.797Z,976.3951
2023-03-06T10:20:01.565Z,976.3322
2023-03-06T10:21:13.589Z,976.3887
2023-03-06T10:22:01.470Z,976.4581
2023-03-06T10:23:05.118Z,976.3231
2023-03-06T10:24:01.535Z,976.4555
2023-03-06T10:25:01.954Z,976.3141
2023-03-06T10:26:01.563Z,976.4252
2023-03-06T10:27:02.013Z,976.5364
2023-03-06T10:28:01.395Z,976.2573
2023-03-06T10:29:01.900Z,976.2675
2023-03-06T10:30:03.968Z,976.2345
2023-03-06T10:31:01.964Z,976.2558
2023-03-06T10:32:03.013Z,976.3086
2023-03-06T10:33:03.569Z,976.3145
2023-03-06T10:34:02.283Z,976.1121
2023-03-06T10:35:01.819Z,976.4252
2023-03-06T10:36:02.353Z,976.2447
2023-03-06T10:37:01.760Z,976.3424
2023-03-06T10:38:02.187Z,976.3141
2023-03-06T10:39:01.749Z,976.3771
2023-03-06T10:40:03.927Z,976.3123
2023-03-06T10:41:01.633Z,976.2931
2023-03-06T10:42:02.122Z,976.3779
2023-03-06T10:43:10.912Z,976.2558
2023-03-06T10:44:02.122Z,976.4685
2023-03-06T10:45:01.568Z,976.2648
2023-03-06T10:46:02.158Z,976.2412
2023-03-06T10:47:01.563Z,976.2558
2023-03-06T10:48:02.029Z,976.3123
2023-03-06T10:49:01.583Z,976.2757
2023-03-06T10:50:03.657Z,976.3103
2023-03-06T10:51:09.798Z,976.2821
2023-03-06T10:52:01.950Z,976.4144
2023-03-06T10:53:01.481Z,976.2885
2023-03-06T10:54:03.673Z,976.4016
2023-03-06T10:55:01.424Z,976.2757
2023-03-06T10:56:01.914Z,976.3141
2023-03-06T10:57:01.438Z,976.2966
2023-03-06T10:58:01.900Z,976.2675
2023-03-06T10:59:03.013Z,976.2237
2023-03-06T11:00:01.806Z,976.2865
2023-03-06T11:01:03.964Z,976.3322
2023-03-06T11:02:01.933Z,976.1395
2023-03-06T11:03:02.296Z,976.2756
2023-03-06T11:04:01.722Z,976.1275
2023-03-06T11:05:02.362Z,976.2973
2023-03-06T11:06:01.730Z,976.2774
2023-03-06T11:07:02.206Z,976.2171
2023-03-06T11:08:01.689Z,976.2191
2023-03-06T11:09:02.122Z,976.3592
2023-03-06T11:10:03.247Z,976.3523
2023-03-06T11:11:02.123Z,976.3141
2023-03-06T11:12:01.564Z,976.2191
2023-03-06T11:13:02.063Z,976.4473
2023-03-06T11:14:01.486Z,976.3543
2023-03-06T11:15:02.145Z,976.3132
2023-03-06T11:16:01.535Z,976.1765
2023-03-06T11:17:03.644Z,976.1291
2023-03-06T11:18:01.501Z,976.194
2023-03-06T11:19:01.974Z,976.3288
2023-03-06T11:20:01.404Z,976.2467
2023-03-06T11:21:01.875Z,976.277
2023-03-06T11:22:03.075Z,976.3134
2023-03-06T11:23:01.806Z,976.398
2023-03-06T11:24:02.325Z,976.1703
2023-03-06T11:25:03.477Z,976.2657
2023-03-06T11:26:02.297Z,976.2297
2023-03-06T11:27:03.397Z,976.2493
2023-03-06T11:28:02.199Z,976.4629
2023-03-06T11:29:01.766Z,976.1961
2023-03-06T11:30:03.866Z,976.3523
2023-03-06T11:31:03.399Z,976.229
2023-03-06T11:32:02.157Z,976.0839
2023-03-06T11:33:01.575Z,976.231
2023-03-06T11:34:03.722Z,976.2966
2023-03-06T11:35:01.690Z,976.2447
2023-03-06T11:36:02.052Z,976.3799
2023-03-06T11:37:01.478Z,976.3024
2023-03-06T11:38:03.642Z,976.1318
2023-03-06T11:39:03.146Z,976.2421
2023-03-06T11:40:01.964Z,976.1719
2023-03-06T11:41:01.391Z,976.2757
2023-03-06T11:42:01.874Z,976.1754
2023-03-06T11:43:01.399Z,976.1162
2023-03-06T11:44:01.899Z,976.0027
2023-03-06T11:45:02.842Z,976.2109
2023-03-06T11:46:01.885Z,976.0977
2023-03-06T11:48:01.816Z,975.9179
2023-03-06T11:49:02.288Z,975.8896
2023-03-06T11:50:03.460Z,975.9947
2023-03-06T11:51:02.282Z,975.9378
2023-03-06T11:52:01.754Z,975.9614
2023-03-06T11:53:02.189Z,975.8461
2023-03-06T11:54:01.729Z,976.0032
2023-03-06T11:55:02.310Z,975.7899
2023-03-06T11:56:01.639Z,975.9944